sensor_id;sensor_type;location;lat;lon;timestamp;P1;durP1;ratioP1;P2;durP2;ratioP2
37349;SDS011;23231;52.358;4.926;2022-10-16T00:02:35;4.15;;;1.77;;
37349;SDS011;23231;52.358;4.926;2022-10-16T00:07:35;9.73;;;2.20;;
37349;SDS011;23231;52.358;4.926;2022-10-16T00:12:35;6.00;;;1.95;;
37349;SDS011;23231;52.358;4.926;2022-10-16T00:17:36;5.82;;;1.75;;
37349;SDS011;23231;52.358;4.926;2022-10-16T00:22:36;6.07;;;1.95;;
37349;SDS011;23231;52.358;4.926;2022-10-16T00:27:37;6.53;;;2.30;;
37349;SDS011;23231;52.358;4.926;2022-10-16T00:32:37;4.47;;;2.13;;
37349;SDS011;23231;52.358;4.926;2022-10-16T00:37:37;8.40;;;2.20;;
37349;SDS011;23231;52.358;4.926;2022-10-16T00:42:38;5.43;;;2.17;;
37349;SDS011;23231;52.358;4.926;2022-10-16T00:47:47;7.93;;;2.38;;
37349;SDS011;23231;52.358;4.926;2022-10-16T00:52:51;4.97;;;2.05;;
37349;SDS011;23231;52.358;4.926;2022-10-16T00:57:52;5.82;;;2.42;;
37349;SDS011;23231;52.358;4.926;2022-10-16T01:02:56;6.35;;;2.17;;
37349;SDS011;23231;52.358;4.926;2022-10-16T01:13:05;4.60;;;1.90;;
37349;SDS011;23231;52.358;4.926;2022-10-16T01:28:27;4.20;;;2.17;;
37349;SDS011;23231;52.358;4.926;2022-10-16T01:33:40;3.80;;;1.80;;
37349;SDS011;23231;52.358;4.926;2022-10-16T01:38:43;4.20;;;1.90;;
37349;SDS011;23231;52.358;4.926;2022-10-16T01:43:49;4.68;;;1.85;;
37349;SDS011;23231;52.358;4.926;2022-10-16T01:48:51;4.70;;;1.65;;
37349;SDS011;23231;52.358;4.926;2022-10-16T01:53:53;3.80;;;1.60;;
37349;SDS011;23231;52.358;4.926;2022-10-16T01:58:57;3.30;;;1.70;;
37349;SDS011;23231;52.358;4.926;2022-10-16T02:04:02;4.60;;;1.85;;
37349;SDS011;23231;52.358;4.926;2022-10-16T02:09:05;3.03;;;1.67;;
37349;SDS011;23231;52.358;4.926;2022-10-16T02:14:05;6.15;;;2.10;;
37349;SDS011;23231;52.358;4.926;2022-10-16T02:19:06;4.03;;;2.13;;
37349;SDS011;23231;52.358;4.926;2022-10-16T02:29:17;5.38;;;2.42;;
37349;SDS011;23231;52.358;4.926;2022-10-16T02:34:22;4.75;;;2.50;;
37349;SDS011;23231;52.358;4.926;2022-10-16T02:39:24;6.28;;;2.20;;
37349;SDS011;23231;52.358;4.926;2022-10-16T02:44:25;4.22;;;2.30;;
37349;SDS011;23231;52.358;4.926;2022-10-16T02:49:25;6.72;;;2.60;;
37349;SDS011;23231;52.358;4.926;2022-10-16T02:54:25;6.85;;;2.50;;
37349;SDS011;23231;52.358;4.926;2022-10-16T02:59:26;4.95;;;2.55;;
37349;SDS011;23231;52.358;4.926;2022-10-16T03:04:26;5.60;;;2.70;;
37349;SDS011;23231;52.358;4.926;2022-10-16T03:09:27;9.98;;;3.63;;
37349;SDS011;23231;52.358;4.926;2022-10-16T03:14:27;6.03;;;3.45;;
37349;SDS011;23231;52.358;4.926;2022-10-16T03:19:27;7.28;;;3.83;;
37349;SDS011;23231;52.358;4.926;2022-10-16T03:24:28;7.30;;;3.58;;
37349;SDS011;23231;52.358;4.926;2022-10-16T03:29:28;5.93;;;3.50;;
37349;SDS011;23231;52.358;4.926;2022-10-16T03:34:29;6.70;;;3.53;;
37349;SDS011;23231;52.358;4.926;2022-10-16T03:39:29;6.63;;;3.80;;
37349;SDS011;23231;52.358;4.926;2022-10-16T03:44:30;6.88;;;3.85;;
37349;SDS011;23231;52.358;4.926;2022-10-16T03:49:30;6.47;;;3.83;;
37349;SDS011;23231;52.358;4.926;2022-10-16T03:54:31;7.75;;;3.85;;
37349;SDS011;23231;52.358;4.926;2022-10-16T03:59:31;7.43;;;3.45;;
37349;SDS011;23231;52.358;4.926;2022-10-16T04:04:31;8.55;;;3.60;;
37349;SDS011;23231;52.358;4.926;2022-10-16T04:09:32;6.05;;;3.30;;
37349;SDS011;23231;52.358;4.926;2022-10-16T04:14:32;8.02;;;3.35;;
37349;SDS011;23231;52.358;4.926;2022-10-16T04:19:33;7.07;;;3.65;;
37349;SDS011;23231;52.358;4.926;2022-10-16T04:24:34;8.65;;;3.25;;
37349;SDS011;23231;52.358;4.926;2022-10-16T04:29:34;8.90;;;2.92;;
37349;SDS011;23231;52.358;4.926;2022-10-16T04:34:35;6.15;;;3.00;;
37349;SDS011;23231;52.358;4.926;2022-10-16T04:39:36;6.72;;;2.70;;
37349;SDS011;23231;52.358;4.926;2022-10-16T04:44:36;7.05;;;2.95;;
37349;SDS011;23231;52.358;4.926;2022-10-16T04:49:36;8.73;;;3.38;;
37349;SDS011;23231;52.358;4.926;2022-10-16T04:54:37;5.40;;;2.70;;
37349;SDS011;23231;52.358;4.926;2022-10-16T04:59:37;5.95;;;2.80;;
37349;SDS011;23231;52.358;4.926;2022-10-16T05:04:38;11.27;;;3.38;;
37349;SDS011;23231;52.358;4.926;2022-10-16T05:09:38;8.23;;;3.05;;
37349;SDS011;23231;52.358;4.926;2022-10-16T05:14:39;9.32;;;2.88;;
37349;SDS011;23231;52.358;4.926;2022-10-16T05:19:39;6.30;;;2.83;;
37349;SDS011;23231;52.358;4.926;2022-10-16T05:24:39;8.48;;;3.45;;
37349;SDS011;23231;52.358;4.926;2022-10-16T05:29:40;6.10;;;3.20;;
37349;SDS011;23231;52.358;4.926;2022-10-16T05:34:40;5.72;;;3.45;;
37349;SDS011;23231;52.358;4.926;2022-10-16T05:39:41;9.73;;;3.55;;
37349;SDS011;23231;52.358;4.926;2022-10-16T05:44:41;5.50;;;3.08;;
37349;SDS011;23231;52.358;4.926;2022-10-16T05:49:42;9.90;;;3.38;;
37349;SDS011;23231;52.358;4.926;2022-10-16T05:54:42;8.38;;;3.28;;
37349;SDS011;23231;52.358;4.926;2022-10-16T05:59:42;7.88;;;3.45;;
37349;SDS011;23231;52.358;4.926;2022-10-16T06:04:43;8.60;;;3.20;;
37349;SDS011;23231;52.358;4.926;2022-10-16T06:09:43;9.13;;;3.38;;
37349;SDS011;23231;52.358;4.926;2022-10-16T06:14:44;7.43;;;2.85;;
37349;SDS011;23231;52.358;4.926;2022-10-16T06:19:46;5.53;;;3.20;;
37349;SDS011;23231;52.358;4.926;2022-10-16T06:24:47;7.53;;;3.30;;
37349;SDS011;23231;52.358;4.926;2022-10-16T06:29:47;9.48;;;3.30;;
37349;SDS011;23231;52.358;4.926;2022-10-16T06:34:48;7.55;;;3.85;;
37349;SDS011;23231;52.358;4.926;2022-10-16T06:39:48;7.20;;;3.67;;
37349;SDS011;23231;52.358;4.926;2022-10-16T06:44:48;6.95;;;4.03;;
37349;SDS011;23231;52.358;4.926;2022-10-16T06:49:49;8.30;;;3.80;;
37349;SDS011;23231;52.358;4.926;2022-10-16T06:54:49;7.85;;;3.88;;
37349;SDS011;23231;52.358;4.926;2022-10-16T06:59:50;10.45;;;4.00;;
37349;SDS011;23231;52.358;4.926;2022-10-16T07:04:50;11.13;;;3.70;;
37349;SDS011;23231;52.358;4.926;2022-10-16T07:09:50;10.40;;;3.55;;
37349;SDS011;23231;52.358;4.926;2022-10-16T07:14:51;7.30;;;3.33;;
37349;SDS011;23231;52.358;4.926;2022-10-16T07:19:52;5.97;;;2.85;;
37349;SDS011;23231;52.358;4.926;2022-10-16T07:24:53;6.20;;;2.83;;
37349;SDS011;23231;52.358;4.926;2022-10-16T07:29:53;5.57;;;2.90;;
37349;SDS011;23231;52.358;4.926;2022-10-16T07:34:54;10.50;;;2.97;;
37349;SDS011;23231;52.358;4.926;2022-10-16T07:39:55;6.10;;;2.20;;
37349;SDS011;23231;52.358;4.926;2022-10-16T07:44:55;6.07;;;2.53;;
37349;SDS011;23231;52.358;4.926;2022-10-16T07:49:56;7.63;;;2.15;;
37349;SDS011;23231;52.358;4.926;2022-10-16T07:54:57;5.68;;;2.00;;
37349;SDS011;23231;52.358;4.926;2022-10-16T07:59:58;7.15;;;2.60;;
37349;SDS011;23231;52.358;4.926;2022-10-16T08:04:58;6.82;;;2.53;;
37349;SDS011;23231;52.358;4.926;2022-10-16T08:09:59;8.63;;;2.92;;
37349;SDS011;23231;52.358;4.926;2022-10-16T08:14:59;7.47;;;3.03;;
37349;SDS011;23231;52.358;4.926;2022-10-16T08:19:59;7.05;;;2.50;;
37349;SDS011;23231;52.358;4.926;2022-10-16T08:25:00;6.25;;;2.75;;
37349;SDS011;23231;52.358;4.926;2022-10-16T08:30:00;10.23;;;2.78;;
37349;SDS011;23231;52.358;4.926;2022-10-16T08:35:01;10.45;;;3.08;;
37349;SDS011;23231;52.358;4.926;2022-10-16T08:40:02;9.75;;;2.97;;
37349;SDS011;23231;52.358;4.926;2022-10-16T08:50:36;9.75;;;2.72;;
37349;SDS011;23231;52.358;4.926;2022-10-16T08:55:45;18.27;;;2.72;;
37349;SDS011;23231;52.358;4.926;2022-10-16T09:00:49;11.18;;;2.90;;
37349;SDS011;23231;52.358;4.926;2022-10-16T09:06:03;7.15;;;2.60;;
37349;SDS011;23231;52.358;4.926;2022-10-16T09:16:34;9.18;;;2.75;;
37349;SDS011;23231;52.358;4.926;2022-10-16T09:21:38;9.23;;;2.30;;
37349;SDS011;23231;52.358;4.926;2022-10-16T09:26:41;10.73;;;2.60;;
37349;SDS011;23231;52.358;4.926;2022-10-16T09:31:42;9.15;;;2.40;;
37349;SDS011;23231;52.358;4.926;2022-10-16T09:36:43;10.82;;;2.70;;
37349;SDS011;23231;52.358;4.926;2022-10-16T09:41:45;9.70;;;2.20;;
37349;SDS011;23231;52.358;4.926;2022-10-16T09:46:45;16.00;;;2.80;;
37349;SDS011;23231;52.358;4.926;2022-10-16T09:51:46;12.38;;;2.60;;
37349;SDS011;23231;52.358;4.926;2022-10-16T09:56:47;11.35;;;2.50;;
37349;SDS011;23231;52.358;4.926;2022-10-16T10:01:52;11.47;;;2.50;;
37349;SDS011;23231;52.358;4.926;2022-10-16T10:06:57;12.77;;;2.67;;
37349;SDS011;23231;52.358;4.926;2022-10-16T10:11:58;13.88;;;2.33;;
37349;SDS011;23231;52.358;4.926;2022-10-16T10:17:08;9.68;;;2.08;;
37349;SDS011;23231;52.358;4.926;2022-10-16T10:22:17;14.00;;;2.25;;
37349;SDS011;23231;52.358;4.926;2022-10-16T10:27:18;11.27;;;2.42;;
37349;SDS011;23231;52.358;4.926;2022-10-16T10:32:27;9.00;;;2.58;;
37349;SDS011;23231;52.358;4.926;2022-10-16T11:10:09;11.35;;;2.35;;
37349;SDS011;23231;52.358;4.926;2022-10-16T11:15:15;8.30;;;1.83;;
37349;SDS011;23231;52.358;4.926;2022-10-16T11:20:26;12.07;;;2.10;;
37349;SDS011;23231;52.358;4.926;2022-10-16T11:25:31;12.38;;;1.92;;
37349;SDS011;23231;52.358;4.926;2022-10-16T11:30:34;11.80;;;1.83;;
37349;SDS011;23231;52.358;4.926;2022-10-16T11:35:47;8.90;;;1.50;;
37349;SDS011;23231;52.358;4.926;2022-10-16T11:46:24;9.15;;;1.60;;
37349;SDS011;23231;52.358;4.926;2022-10-16T11:51:29;10.55;;;1.88;;
37349;SDS011;23231;52.358;4.926;2022-10-16T11:56:35;11.77;;;2.38;;
37349;SDS011;23231;52.358;4.926;2022-10-16T12:02:40;11.93;;;1.77;;
37349;SDS011;23231;52.358;4.926;2022-10-16T12:07:22;6.20;;;1.38;;
37349;SDS011;23231;52.358;4.926;2022-10-16T12:17:36;7.90;;;1.52;;
37349;SDS011;23231;52.358;4.926;2022-10-16T12:22:40;10.07;;;1.73;;
37349;SDS011;23231;52.358;4.926;2022-10-16T12:27:42;11.47;;;1.60;;
37349;SDS011;23231;52.358;4.926;2022-10-16T12:32:42;7.90;;;1.48;;
37349;SDS011;23231;52.358;4.926;2022-10-16T12:37:43;7.95;;;1.70;;
37349;SDS011;23231;52.358;4.926;2022-10-16T12:42:44;7.15;;;1.30;;
37349;SDS011;23231;52.358;4.926;2022-10-16T12:47:48;8.63;;;1.90;;
37349;SDS011;23231;52.358;4.926;2022-10-16T12:52:51;8.40;;;1.38;;
37349;SDS011;23231;52.358;4.926;2022-10-16T12:58:00;8.20;;;1.80;;
37349;SDS011;23231;52.358;4.926;2022-10-16T13:29:08;6.35;;;1.58;;
37349;SDS011;23231;52.358;4.926;2022-10-16T13:34:19;6.45;;;1.50;;
37349;SDS011;23231;52.358;4.926;2022-10-16T13:39:26;9.00;;;1.52;;
37349;SDS011;23231;52.358;4.926;2022-10-16T13:44:40;10.98;;;1.83;;
37349;SDS011;23231;52.358;4.926;2022-10-16T13:49:42;8.88;;;1.65;;
37349;SDS011;23231;52.358;4.926;2022-10-16T13:54:43;10.73;;;2.58;;
37349;SDS011;23231;52.358;4.926;2022-10-16T13:59:43;7.93;;;1.70;;
37349;SDS011;23231;52.358;4.926;2022-10-16T14:04:44;9.52;;;1.50;;
37349;SDS011;23231;52.358;4.926;2022-10-16T14:09:47;12.10;;;1.80;;
37349;SDS011;23231;52.358;4.926;2022-10-16T14:14:49;9.13;;;1.92;;
37349;SDS011;23231;52.358;4.926;2022-10-16T14:19:52;9.70;;;1.83;;
37349;SDS011;23231;52.358;4.926;2022-10-16T14:24:55;14.45;;;2.42;;
37349;SDS011;23231;52.358;4.926;2022-10-16T14:40:29;6.88;;;1.40;;
37349;SDS011;23231;52.358;4.926;2022-10-16T14:45:34;11.25;;;1.60;;
37349;SDS011;23231;52.358;4.926;2022-10-16T14:50:34;7.78;;;1.25;;
37349;SDS011;23231;52.358;4.926;2022-10-16T14:55:36;10.60;;;1.90;;
37349;SDS011;23231;52.358;4.926;2022-10-16T15:00:37;12.90;;;2.20;;
37349;SDS011;23231;52.358;4.926;2022-10-16T15:05:37;11.70;;;1.90;;
37349;SDS011;23231;52.358;4.926;2022-10-16T15:10:39;10.88;;;1.77;;
37349;SDS011;23231;52.358;4.926;2022-10-16T15:15:45;9.35;;;1.83;;
37349;SDS011;23231;52.358;4.926;2022-10-16T15:20:47;12.10;;;2.83;;
37349;SDS011;23231;52.358;4.926;2022-10-16T15:25:50;12.93;;;3.10;;
37349;SDS011;23231;52.358;4.926;2022-10-16T15:30:52;7.97;;;1.67;;
37349;SDS011;23231;52.358;4.926;2022-10-16T15:35:54;11.35;;;2.28;;
37349;SDS011;23231;52.358;4.926;2022-10-16T15:40:55;11.98;;;2.22;;
37349;SDS011;23231;52.358;4.926;2022-10-16T15:46:06;8.00;;;2.15;;
37349;SDS011;23231;52.358;4.926;2022-10-16T15:51:08;12.20;;;2.88;;
37349;SDS011;23231;52.358;4.926;2022-10-16T15:56:09;11.00;;;3.80;;
37349;SDS011;23231;52.358;4.926;2022-10-16T16:01:11;9.63;;;3.05;;
37349;SDS011;23231;52.358;4.926;2022-10-16T16:06:12;11.15;;;3.17;;
37349;SDS011;23231;52.358;4.926;2022-10-16T16:11:14;13.43;;;3.72;;
37349;SDS011;23231;52.358;4.926;2022-10-16T16:16:15;11.45;;;3.33;;
37349;SDS011;23231;52.358;4.926;2022-10-16T16:21:16;10.63;;;2.78;;
37349;SDS011;23231;52.358;4.926;2022-10-16T16:26:24;9.85;;;2.45;;
37349;SDS011;23231;52.358;4.926;2022-10-16T16:31:26;12.25;;;2.90;;
37349;SDS011;23231;52.358;4.926;2022-10-16T16:36:27;9.48;;;3.10;;
37349;SDS011;23231;52.358;4.926;2022-10-16T16:41:29;14.40;;;3.55;;
37349;SDS011;23231;52.358;4.926;2022-10-16T16:46:30;15.13;;;4.75;;
37349;SDS011;23231;52.358;4.926;2022-10-16T16:51:32;13.30;;;3.80;;
37349;SDS011;23231;52.358;4.926;2022-10-16T16:56:33;13.10;;;3.78;;
37349;SDS011;23231;52.358;4.926;2022-10-16T17:01:34;11.65;;;3.40;;
37349;SDS011;23231;52.358;4.926;2022-10-16T17:06:34;11.38;;;3.03;;
37349;SDS011;23231;52.358;4.926;2022-10-16T17:11:35;14.60;;;3.05;;
37349;SDS011;23231;52.358;4.926;2022-10-16T17:16:36;11.27;;;3.28;;
37349;SDS011;23231;52.358;4.926;2022-10-16T17:21:37;14.60;;;3.20;;
37349;SDS011;23231;52.358;4.926;2022-10-16T17:26:37;8.88;;;2.80;;
37349;SDS011;23231;52.358;4.926;2022-10-16T17:31:40;10.13;;;2.97;;
37349;SDS011;23231;52.358;4.926;2022-10-16T17:36:41;8.25;;;2.80;;
37349;SDS011;23231;52.358;4.926;2022-10-16T17:41:46;9.40;;;2.88;;
37349;SDS011;23231;52.358;4.926;2022-10-16T17:46:48;12.13;;;3.35;;
37349;SDS011;23231;52.358;4.926;2022-10-16T17:51:51;11.23;;;3.50;;
37349;SDS011;23231;52.358;4.926;2022-10-16T17:56:52;8.55;;;2.72;;
37349;SDS011;23231;52.358;4.926;2022-10-16T18:01:53;15.07;;;2.95;;
37349;SDS011;23231;52.358;4.926;2022-10-16T18:06:53;8.93;;;2.70;;
37349;SDS011;23231;52.358;4.926;2022-10-16T18:11:55;10.88;;;2.95;;
37349;SDS011;23231;52.358;4.926;2022-10-16T18:17:01;10.80;;;3.10;;
37349;SDS011;23231;52.358;4.926;2022-10-16T18:22:01;11.70;;;2.78;;
37349;SDS011;23231;52.358;4.926;2022-10-16T18:27:02;11.48;;;2.95;;
37349;SDS011;23231;52.358;4.926;2022-10-16T18:32:02;11.35;;;3.20;;
37349;SDS011;23231;52.358;4.926;2022-10-16T18:37:03;13.88;;;3.58;;
37349;SDS011;23231;52.358;4.926;2022-10-16T18:42:03;11.93;;;4.10;;
37349;SDS011;23231;52.358;4.926;2022-10-16T18:47:03;13.93;;;4.50;;
37349;SDS011;23231;52.358;4.926;2022-10-16T18:52:04;12.55;;;4.43;;
37349;SDS011;23231;52.358;4.926;2022-10-16T18:57:04;14.25;;;4.95;;
37349;SDS011;23231;52.358;4.926;2022-10-16T19:02:05;15.68;;;5.07;;
37349;SDS011;23231;52.358;4.926;2022-10-16T19:07:06;16.08;;;4.53;;
37349;SDS011;23231;52.358;4.926;2022-10-16T19:12:07;19.38;;;4.85;;
37349;SDS011;23231;52.358;4.926;2022-10-16T19:17:07;13.85;;;3.97;;
37349;SDS011;23231;52.358;4.926;2022-10-16T19:22:07;15.82;;;4.03;;
37349;SDS011;23231;52.358;4.926;2022-10-16T19:27:13;12.73;;;3.83;;
37349;SDS011;23231;52.358;4.926;2022-10-16T19:32:13;11.32;;;3.75;;
37349;SDS011;23231;52.358;4.926;2022-10-16T19:37:14;12.95;;;4.72;;
37349;SDS011;23231;52.358;4.926;2022-10-16T19:42:14;12.10;;;4.07;;
37349;SDS011;23231;52.358;4.926;2022-10-16T19:47:15;14.88;;;4.80;;
37349;SDS011;23231;52.358;4.926;2022-10-16T19:52:15;11.75;;;4.28;;
37349;SDS011;23231;52.358;4.926;2022-10-16T19:57:16;12.32;;;4.25;;
37349;SDS011;23231;52.358;4.926;2022-10-16T20:02:16;11.82;;;4.90;;
37349;SDS011;23231;52.358;4.926;2022-10-16T20:07:17;12.80;;;4.68;;
37349;SDS011;23231;52.358;4.926;2022-10-16T20:12:17;13.45;;;4.75;;
37349;SDS011;23231;52.358;4.926;2022-10-16T20:17:18;13.00;;;4.80;;
37349;SDS011;23231;52.358;4.926;2022-10-16T20:22:18;17.80;;;4.45;;
37349;SDS011;23231;52.358;4.926;2022-10-16T20:27:19;14.30;;;4.18;;
37349;SDS011;23231;52.358;4.926;2022-10-16T20:32:19;15.40;;;4.70;;
37349;SDS011;23231;52.358;4.926;2022-10-16T20:37:20;15.15;;;4.30;;
37349;SDS011;23231;52.358;4.926;2022-10-16T20:42:20;14.18;;;4.85;;
37349;SDS011;23231;52.358;4.926;2022-10-16T20:47:21;13.95;;;4.53;;
37349;SDS011;23231;52.358;4.926;2022-10-16T20:52:21;9.95;;;4.13;;
37349;SDS011;23231;52.358;4.926;2022-10-16T20:57:22;13.75;;;5.32;;
37349;SDS011;23231;52.358;4.926;2022-10-16T21:02:22;16.60;;;5.60;;
37349;SDS011;23231;52.358;4.926;2022-10-16T21:07:23;13.63;;;5.88;;
37349;SDS011;23231;52.358;4.926;2022-10-16T21:12:24;13.68;;;5.63;;
37349;SDS011;23231;52.358;4.926;2022-10-16T21:17:25;11.73;;;5.97;;
37349;SDS011;23231;52.358;4.926;2022-10-16T21:22:29;15.88;;;6.97;;
37349;SDS011;23231;52.358;4.926;2022-10-16T21:27:29;12.82;;;6.50;;
37349;SDS011;23231;52.358;4.926;2022-10-16T21:32:36;19.20;;;7.78;;
37349;SDS011;23231;52.358;4.926;2022-10-16T21:37:37;16.55;;;7.57;;
37349;SDS011;23231;52.358;4.926;2022-10-16T21:42:37;11.95;;;7.05;;
37349;SDS011;23231;52.358;4.926;2022-10-16T21:47:37;12.30;;;6.10;;
37349;SDS011;23231;52.358;4.926;2022-10-16T21:52:38;14.07;;;7.53;;
37349;SDS011;23231;52.358;4.926;2022-10-16T21:57:38;13.50;;;7.10;;
37349;SDS011;23231;52.358;4.926;2022-10-16T22:02:39;12.93;;;6.93;;
37349;SDS011;23231;52.358;4.926;2022-10-16T22:07:39;12.27;;;6.63;;
37349;SDS011;23231;52.358;4.926;2022-10-16T22:12:39;15.23;;;7.80;;
37349;SDS011;23231;52.358;4.926;2022-10-16T22:17:40;12.60;;;6.88;;
37349;SDS011;23231;52.358;4.926;2022-10-16T22:22:41;15.52;;;7.88;;
37349;SDS011;23231;52.358;4.926;2022-10-16T22:27:41;14.70;;;6.80;;
37349;SDS011;23231;52.358;4.926;2022-10-16T22:32:42;16.58;;;7.32;;
37349;SDS011;23231;52.358;4.926;2022-10-16T22:37:42;16.75;;;8.52;;
37349;SDS011;23231;52.358;4.926;2022-10-16T22:42:42;12.57;;;7.57;;
37349;SDS011;23231;52.358;4.926;2022-10-16T22:47:43;12.30;;;7.88;;
37349;SDS011;23231;52.358;4.926;2022-10-16T22:52:43;13.70;;;8.63;;
37349;SDS011;23231;52.358;4.926;2022-10-16T22:57:43;13.40;;;7.47;;
37349;SDS011;23231;52.358;4.926;2022-10-16T23:02:44;14.23;;;8.30;;
37349;SDS011;23231;52.358;4.926;2022-10-16T23:07:44;14.63;;;8.25;;
37349;SDS011;23231;52.358;4.926;2022-10-16T23:12:45;13.32;;;7.53;;
37349;SDS011;23231;52.358;4.926;2022-10-16T23:17:45;17.25;;;8.43;;
37349;SDS011;23231;52.358;4.926;2022-10-16T23:22:46;14.43;;;9.07;;
37349;SDS011;23231;52.358;4.926;2022-10-16T23:27:46;15.73;;;8.25;;
37349;SDS011;23231;52.358;4.926;2022-10-16T23:32:47;16.08;;;8.68;;
37349;SDS011;23231;52.358;4.926;2022-10-16T23:37:47;13.35;;;7.93;;
37349;SDS011;23231;52.358;4.926;2022-10-16T23:42:48;11.73;;;7.63;;
37349;SDS011;23231;52.358;4.926;2022-10-16T23:47:48;14.02;;;7.85;;
37349;SDS011;23231;52.358;4.926;2022-10-16T23:52:49;16.48;;;8.80;;
37349;SDS011;23231;52.358;4.926;2022-10-16T23:57:49;17.65;;;8.52;;
